MST,Max TemperatureF,Mean TemperatureF,Min TemperatureF,Max Dew PointF,MeanDew PointF,Min DewpointF,Max Humidity, Mean Humidity, Min Humidity, Max Sea Level PressureIn, Mean Sea Level PressureIn, Min Sea Level PressureIn, Max VisibilityMiles, Mean VisibilityMiles, Min VisibilityMiles, Max Wind SpeedMPH, Mean Wind SpeedMPH, Max Gust SpeedMPH,PrecipitationIn, CloudCover, Events, WindDirDegrees
2013-12-1,0,-6,-11,-4,-7,-10,84,79,69,30.65,30.52,30.43,,,,18,13,25,0.00,,,337
2013-12-2,0,-8,-17,-5,-14,-22,86,80,68,30.71,30.70,30.65,,,,10,4,,0.00,,,306
2013-12-3,6,-8,-21,3,-11,-27,90,82,67,30.78,30.75,30.71,,,,8,3,,0.00,,,310
2013-12-4,-11,-19,-27,-17,-24,-33,82,76,56,30.84,30.71,30.66,,,,5,1,,0.00,,,94
2013-12-5,-23,-28,-34,-30,-35,-41,75,70,54,30.95,30.91,30.83,,,,4,1,,0.10,,,125
2013-12-6,-8,-22,-35,-12,-29,-37,83,73,57,30.82,30.55,30.29,,,,5,2,,0.61,,,146
2013-12-7,7,-10,-27,4,-4,-14,91,86,75,30.37,30.30,30.24,,,,12,5,,0.10,,,326
2013-12-8,17,0,-18,17,-6,-22,96,84,70,30.38,30.13,29.96,,,,9,4,,0.01,,,149
2013-12-9,23,8,-8,18,-1,-14,87,72,48,30.50,30.25,29.97,,,,20,13,28,0.00,,,338
2013-12-10,-7,-17,-27,-18,-25,-32,86,76,61,30.52,30.40,30.30,,,,9,3,,0.01,,,308
2013-12-11,-8,-17,-26,-14,-20,-30,82,78,68,30.53,30.47,30.40,,,,6,4,,0.00,,,305
2013-12-12,-11,-17,-23,-17,-21,-25,85,77,65,30.62,30.59,30.54,,,,5,1,,0.01,,,358
2013-12-13,-16,-18,-21,-20,-23,-25,78,74,60,30.60,30.50,30.25,,,,8,4,,0.03,,,118
2013-12-14,-6,-12,-19,-12,-16,-24,85,78,65,30.22,29.75,29.39,,,,12,8,21,0.02,,,123
2013-12-15,-5,-8,-11,-9,-12,-15,84,79,67,29.92,29.62,29.39,,,,15,9,20,0.08,,,317
2013-12-16,-10,-19,-28,-15,-22,-35,84,76,57,30.32,30.20,29.95,,,,10,7,,0.01,,,307
2013-12-17,-12,-22,-31,-18,-25,-38,86,75,54,30.29,30.20,30.13,,,,10,3,,0.24,,,321
2013-12-18,-30,-34,-38,-38,-42,-45,76,66,48,30.37,30.32,30.23,,,,1,0,,0.01,,,135
2013-12-19,-29,-34,-39,-36,-42,-46,77,67,51,30.22,30.14,30.10,,,,2,1,,0.07,,,58
2013-12-20,-31,-36,-40,-40,-44,-47,69,65,47,30.16,30.11,30.07,,,,4,0,,0.08,,,315
2013-12-21,-21,-30,-40,-27,-37,-46,76,68,47,30.25,30.22,30.17,,,,5,1,,0.00,,,128
2013-12-22,1,-16,-33,-2,-16,-33,94,80,64,30.19,29.81,29.51,,,,10,6,,0.16,,,147
2013-12-23,7,-2,-12,4,-2,-9,90,84,72,29.88,29.74,29.53,,,,12,7,,0.02,,,322
2013-12-24,0,-11,-22,-3,-10,-27,86,81,63,30.33,30.19,29.90,,,,13,5,,0.04,,,330
2013-12-25,0,-12,-24,-3,-12,-27,91,81,68,30.28,30.07,29.99,,,,8,4,,0.04,,,80
2013-12-26,-6,-16,-25,-11,-17,-30,84,77,56,30.42,30.22,30.09,,,,17,10,23,0.01,,,335
2013-12-27,-23,-32,-42,-35,-44,-50,74,65,46,30.73,30.62,30.45,,,,8,2,,0.01,,,315
2013-12-28,-35,-40,-45,-44,-50,-54,73,62,41,30.73,30.65,30.53,,,,1,0,,0.01,,,170
2013-12-29,-40,-43,-46,-48,-52,-54,71,61,41,30.65,30.55,30.48,,,,2,0,,0.00,,,307
2013-12-30,-34,-40,-47,-42,-49,-54,74,62,39,30.66,30.56,30.41,,,,2,1,,0.18,,,122
2013-12-31,-31,-37,-43,-38,-41,-47,70,66,47,30.54,30.44,30.38,,,,5,2,,0.00,,,332